createdAt,value
2022-09-29T00:00:54.943Z,6.44
2022-09-29T00:05:53.783Z,6.48
2022-09-29T00:10:50.438Z,6.54
2022-09-29T00:16:01.682Z,6.52
2022-09-29T00:21:16.637Z,6.47
2022-09-29T00:26:16.761Z,6.47
2022-09-29T00:31:13.324Z,6.43
2022-09-29T00:36:12.534Z,6.35
2022-09-29T00:41:17.879Z,6.32
2022-09-29T00:46:17.703Z,6.21
2022-09-29T00:51:14.941Z,6.06
2022-09-29T00:56:14.660Z,5.96
2022-09-29T01:01:13.282Z,5.92
2022-09-29T01:06:16.994Z,5.95
2022-09-29T01:11:14.172Z,5.81
2022-09-29T01:16:10.531Z,5.80
2022-09-29T01:21:29.677Z,5.78
2022-09-29T01:26:58.604Z,5.80
2022-09-29T01:32:21.273Z,5.72
2022-09-29T01:37:31.979Z,5.69
2022-09-29T01:42:45.847Z,5.53
2022-09-29T01:48:05.820Z,5.50
2022-09-29T01:53:08.262Z,5.48
2022-09-29T01:58:07.687Z,5.33
2022-09-29T02:03:13.283Z,5.23
2022-09-29T02:08:38.519Z,5.13
2022-09-29T02:14:02.022Z,5.04
2022-09-29T02:19:20.753Z,4.82
2022-09-29T02:24:17.413Z,4.66
2022-09-29T02:29:16.005Z,4.56
2022-09-29T02:34:19.343Z,4.47
2022-09-29T02:39:41.725Z,4.37
2022-09-29T02:45:02.941Z,4.38
2022-09-29T02:50:21.614Z,4.42
2022-09-29T02:55:25.462Z,4.39
2022-09-29T03:00:22.747Z,4.39
2022-09-29T03:05:22.447Z,4.26
2022-09-29T03:10:19.196Z,4.19
2022-09-29T03:15:15.690Z,4.16
2022-09-29T03:20:12.082Z,4.17
2022-09-29T03:25:08.611Z,4.15
2022-09-29T03:30:05.528Z,4.06
2022-09-29T03:35:02.181Z,4.21
2022-09-29T03:39:58.598Z,4.26
2022-09-29T03:44:55.199Z,3.85
2022-09-29T03:49:51.594Z,3.84
2022-09-29T03:54:47.942Z,3.83
2022-09-29T03:59:45.684Z,3.70
2022-09-29T04:04:42.261Z,3.73
2022-09-29T04:09:38.602Z,3.65
2022-09-29T04:14:34.958Z,3.80
2022-09-29T04:19:31.394Z,3.76
2022-09-29T04:24:27.786Z,3.76
2022-09-29T04:29:24.207Z,3.71
2022-09-29T04:34:20.672Z,3.65
2022-09-29T04:39:17.056Z,3.68
2022-09-29T04:44:13.554Z,3.60
2022-09-29T04:49:09.861Z,3.55
2022-09-29T04:54:06.333Z,3.55
2022-09-29T04:59:02.696Z,3.61
2022-09-29T05:03:59.013Z,3.56
2022-09-29T05:08:55.394Z,3.59
2022-09-29T05:13:51.731Z,3.52
2022-09-29T05:18:48.110Z,3.69
2022-09-29T05:23:44.450Z,3.76
2022-09-29T05:28:46.777Z,4.06
2022-09-29T05:33:43.505Z,4.18
2022-09-29T05:38:40.204Z,4.27
2022-09-29T05:43:36.969Z,4.32
2022-09-29T05:48:33.514Z,4.31
2022-09-29T05:53:30.802Z,4.38
2022-09-29T05:58:27.100Z,4.40
2022-09-29T06:03:23.429Z,4.38
2022-09-29T06:08:19.952Z,4.44
2022-09-29T06:13:16.302Z,4.59
2022-09-29T06:18:12.610Z,4.96
2022-09-29T06:23:08.975Z,5.11
2022-09-29T06:28:05.331Z,5.38
2022-09-29T06:33:02.175Z,5.59
2022-09-29T06:37:58.637Z,5.72
2022-09-29T06:42:54.985Z,6.07
2022-09-29T06:47:51.271Z,6.53
2022-09-29T06:53:01.713Z,7.01
2022-09-29T06:58:03.710Z,7.40
2022-09-29T07:03:00.573Z,7.42
2022-09-29T07:08:00.811Z,7.52
2022-09-29T07:12:57.745Z,7.86
2022-09-29T07:17:54.040Z,8.08
2022-09-29T07:22:50.401Z,8.35
2022-09-29T07:27:47.763Z,8.54
2022-09-29T07:32:56.903Z,8.74
2022-09-29T07:37:56.224Z,9.01
2022-09-29T07:42:52.559Z,9.12
2022-09-29T07:47:48.887Z,8.89
2022-09-29T07:52:45.261Z,8.80
2022-09-29T07:57:41.593Z,9.08
2022-09-29T08:02:37.949Z,8.92
2022-09-29T08:07:34.934Z,9.23
2022-09-29T08:12:41.770Z,9.79
2022-09-29T08:17:40.265Z,9.93
2022-09-29T08:22:36.549Z,10.31
2022-09-29T08:27:34.277Z,10.32
2022-09-29T08:32:31.781Z,10.20
2022-09-29T08:37:33.056Z,9.89
2022-09-29T08:42:49.308Z,10.40
2022-09-29T08:47:49.176Z,10.47
2022-09-29T08:52:53.156Z,10.63
2022-09-29T08:57:58.447Z,10.81
2022-09-29T09:03:17.742Z,10.82
2022-09-29T09:08:24.470Z,11.02
2022-09-29T09:13:52.095Z,11.05
2022-09-29T09:19:07.375Z,11.13
2022-09-29T09:24:15.510Z,10.86
2022-09-29T09:29:38.050Z,10.91
2022-09-29T09:34:44.703Z,11.31
2022-09-29T09:39:57.354Z,11.42
2022-09-29T09:45:26.427Z,12.27
2022-09-29T09:50:25.274Z,12.02
2022-09-29T09:55:24.804Z,11.78
2022-09-29T10:00:30.606Z,12.20
2022-09-29T10:05:34.290Z,11.58
2022-09-29T10:10:31.356Z,12.08
2022-09-29T10:15:38.831Z,12.75
2022-09-29T10:20:37.967Z,12.51
2022-09-29T10:25:34.782Z,12.39
2022-09-29T10:30:34.636Z,12.24
2022-09-29T10:35:40.865Z,12.57
2022-09-29T10:40:37.351Z,12.67
2022-09-29T10:45:48.099Z,13.49
2022-09-29T10:50:47.628Z,14.45
2022-09-29T10:55:51.142Z,13.62
2022-09-29T11:00:48.643Z,13.71
2022-09-29T11:06:04.166Z,13.45
2022-09-29T11:11:05.746Z,12.98
2022-09-29T11:16:13.767Z,13.09
2022-09-29T11:21:28.851Z,12.67
2022-09-29T11:26:44.637Z,12.51
2022-09-29T11:32:07.108Z,12.67
2022-09-29T11:37:24.922Z,12.95
2022-09-29T11:42:56.882Z,12.65
2022-09-29T11:47:59.301Z,12.88
2022-09-29T11:53:04.173Z,13.15
2022-09-29T11:58:15.482Z,13.33
2022-09-29T12:03:31.171Z,13.60
2022-09-29T12:09:00.580Z,13.76
2022-09-29T12:14:14.160Z,13.69
2022-09-29T12:19:15.179Z,13.25
2022-09-29T12:24:18.373Z,13.40
2022-09-29T12:29:38.899Z,13.81
2022-09-29T12:34:42.191Z,13.94
2022-09-29T12:39:52.849Z,14.15
2022-09-29T12:45:10.972Z,14.26
2022-09-29T12:50:22.684Z,13.94
2022-09-29T12:55:27.897Z,14.77
2022-09-29T13:00:25.329Z,15.50
2022-09-29T13:05:27.650Z,15.07
2022-09-29T13:10:35.522Z,14.54
2022-09-29T13:15:48.324Z,14.14
2022-09-29T13:20:58.534Z,13.94
2022-09-29T13:26:08.359Z,14.14
2022-09-29T13:31:12.985Z,13.93
2022-09-29T13:36:09.522Z,13.59
2022-09-29T13:41:13.358Z,13.47
2022-09-29T13:46:31.821Z,13.96
2022-09-29T13:51:45.394Z,13.99
2022-09-29T13:56:41.746Z,14.01
2022-09-29T14:01:39.378Z,14.22
2022-09-29T14:06:46.937Z,14.09
2022-09-29T14:11:49.392Z,14.09
2022-09-29T14:16:55.944Z,14.09
2022-09-29T14:21:56.943Z,14.04
2022-09-29T14:26:54.470Z,13.87
2022-09-29T14:31:55.891Z,13.80
2022-09-29T14:36:55.899Z,13.89
2022-09-29T14:41:52.225Z,14.32
2022-09-29T14:47:30.109Z,14.79
2022-09-29T14:52:26.784Z,14.48
2022-09-29T14:58:19.742Z,14.46
2022-09-29T15:03:27.952Z,14.34
2022-09-29T15:08:31.586Z,14.04
2022-09-29T15:13:31.514Z,13.96
2022-09-29T15:18:35.942Z,14.11
2022-09-29T15:24:04.290Z,14.36
2022-09-29T15:29:01.134Z,14.36
2022-09-29T15:33:57.706Z,14.38
2022-09-29T15:39:00.601Z,14.36
2022-09-29T15:43:59.353Z,14.08
2022-09-29T15:49:11.118Z,14.09
2022-09-29T15:54:10.897Z,13.94
2022-09-29T15:59:17.999Z,13.69
2022-09-29T16:04:14.443Z,13.70
2022-09-29T16:09:19.465Z,13.65
2022-09-29T16:14:28.095Z,13.66
2022-09-29T16:19:28.122Z,13.74
2022-09-29T16:24:30.830Z,14.78
2022-09-29T16:29:30.452Z,18.34
2022-09-29T16:34:32.700Z,20.95
2022-09-29T16:39:33.308Z,19.57
2022-09-29T16:44:33.439Z,16.78
2022-09-29T16:49:33.471Z,14.78
2022-09-29T16:54:33.519Z,13.50
2022-09-29T16:59:29.818Z,12.62
2022-09-29T17:04:26.123Z,11.93
2022-09-29T17:09:25.563Z,11.48
2022-09-29T17:14:22.128Z,11.07
2022-09-29T17:19:20.461Z,10.71
2022-09-29T17:24:17.024Z,10.37
2022-09-29T17:29:13.449Z,10.08
2022-09-29T17:34:09.744Z,9.80
2022-09-29T17:39:06.153Z,9.44
2022-09-29T17:44:05.867Z,9.30
2022-09-29T17:49:02.451Z,9.11
2022-09-29T17:54:00.281Z,8.98
2022-09-29T17:58:57.778Z,8.83
2022-09-29T18:03:55.523Z,8.66
2022-09-29T18:08:54.078Z,8.50
2022-09-29T18:13:51.345Z,8.36
2022-09-29T18:18:48.411Z,8.23
2022-09-29T18:23:45.243Z,8.06
2022-09-29T18:28:44.039Z,7.81
2022-09-29T18:33:41.470Z,7.66
2022-09-29T18:38:37.805Z,7.60
2022-09-29T18:43:34.131Z,7.56
2022-09-29T18:48:30.654Z,7.40
2022-09-29T18:53:27.898Z,7.36
2022-09-29T18:58:24.775Z,7.33
2022-09-29T19:03:23.577Z,7.17
2022-09-29T19:08:20.388Z,7.06
2022-09-29T19:13:17.283Z,6.98
2022-09-29T19:18:22.450Z,6.88
2022-09-29T19:23:21.715Z,6.81
2022-09-29T19:28:20.250Z,6.80
2022-09-29T19:33:18.377Z,6.80
2022-09-29T19:38:15.108Z,6.70
2022-09-29T19:43:13.121Z,6.72
2022-09-29T19:48:14.889Z,6.67
2022-09-29T19:53:11.217Z,6.54
2022-09-29T19:58:07.724Z,6.54
2022-09-29T20:03:04.138Z,6.48
2022-09-29T20:08:02.021Z,6.48
2022-09-29T20:12:59.493Z,6.41
2022-09-29T20:17:55.825Z,6.35
2022-09-29T20:22:53.339Z,6.23
2022-09-29T20:27:52.034Z,6.10
2022-09-29T20:32:49.445Z,6.00
2022-09-29T20:37:46.787Z,5.95
2022-09-29T20:42:46.046Z,5.95
2022-09-29T20:47:42.362Z,5.91
2022-09-29T20:52:38.666Z,5.83
2022-09-29T20:57:34.975Z,5.68
2022-09-29T21:02:31.371Z,5.53
2022-09-29T21:07:36.939Z,5.51
2022-09-29T21:12:34.040Z,5.48
2022-09-29T21:17:30.526Z,5.32
2022-09-29T21:22:27.981Z,5.41
2022-09-29T21:27:24.695Z,5.33
2022-09-29T21:32:21.023Z,5.37
2022-09-29T21:37:17.334Z,5.45
2022-09-29T21:42:14.278Z,5.46
2022-09-29T21:47:10.675Z,5.34
2022-09-29T21:52:07.043Z,5.19
2022-09-29T21:57:04.667Z,5.09
2022-09-29T22:02:01.254Z,5.06
2022-09-29T22:06:59.023Z,5.02
2022-09-29T22:11:55.347Z,5.08
2022-09-29T22:16:52.094Z,5.02
2022-09-29T22:21:48.423Z,4.95
2022-09-29T22:26:44.770Z,4.91
2022-09-29T22:31:41.292Z,4.75
2022-09-29T22:36:37.931Z,4.77
2022-09-29T22:41:36.638Z,4.52
2022-09-29T22:46:33.362Z,4.60
2022-09-29T22:51:30.250Z,4.58
2022-09-29T22:56:29.384Z,4.55
2022-09-29T23:01:26.919Z,4.57
2022-09-29T23:06:23.411Z,4.46
2022-09-29T23:11:20.321Z,4.39
2022-09-29T23:16:17.274Z,4.36
2022-09-29T23:21:18.879Z,4.27
2022-09-29T23:26:16.319Z,4.26
2022-09-29T23:31:12.917Z,4.18
2022-09-29T23:36:14.601Z,4.14
2022-09-29T23:41:11.206Z,4.07
2022-09-29T23:46:07.765Z,4.02
2022-09-29T23:51:04.219Z,4.04
2022-09-29T23:56:00.735Z,3.96
